KEDE

Details ICAO KEDE
Name NORTHEASTERN RGNL
Region United States
Timezone America/New_York (UTC-5.0)
Plans Departing 1
Arriving 6
Stats Elevation 20 ft / 6 m (AMSL)
Location 36.027478° -76.566293°
Runways 2
Magnetic Variation 10.535° W
Sunrise 2017-12-16 12:11:48 UTC / 2017-12-16 07:11:48 Local
Sunset 2017-12-16 21:54:58 UTC / 2017-12-16 16:54:58 Local
Advertisement - Login to hide

Runways

ID Width Length Bearing (true) Bearing (mag) Surface Threshold Offset Overrun Length
01 100 ft / 30 m 6,015 ft / 1,833 m 359.91° 10.45° Asphalt 0 ft / 0 m 500 ft / 152 m
05 100 ft / 30 m 3,758 ft / 1,145 m 44.77° 55.31° Asphalt 0 ft / 0 m 0 ft / 0 m
19 100 ft / 30 m 6,015 ft / 1,833 m 179.91° 190.45° Asphalt 0 ft / 0 m 2,150 ft / 655 m
23 100 ft / 30 m 3,758 ft / 1,145 m 224.77° 235.31° Asphalt 0 ft / 0 m 0 ft / 0 m

Map

Weather


0- 5 10 15 20 25 30 35+ Temperature / ° C

Clouds and Precipitation
Forecast for 2017-12-17 00:00 UTC. Updated 2 hours ago

Ground ~20,000 ft ~40,000 ft Winds

METAR

KEDE 162145Z AUTO 22007KT 10SM CLR 08/M02 A3021 RMK AO2 T00771016

TAF

Not found

Frequencies

Recorded 121.12 MHz AWOS 3
Unicom 123.00 MHz CTAF/UNICOM
Warning: Do not use this data for real-world aviation or navigation. No guarantee of current accuracy is given.